Terminal Aerodrome Forecast
Issued by NWS

Home | Current Version | Previous Version | Graphics & Text | Print | Product List | Glossary Off
Versions: 1 2 3 4 5 6 7 8 9 10 11 12 13 14 15 16 17 18 19 20 21 22 23 24 25 26 27 28 29

000
FTUS43 KDDC 252329
TAFGCK
TAF
KGCK 252329Z 2600/2624 05011KT P6SM VCSH OVC080
     FM260400 02012KT P6SM VCSH OVC035
     FM260500 02016G26KT P6SM VCSH OVC020
     FM261000 36019G28KT P6SM OVC030
     FM261300 35019G28KT P6SM OVC070=

USA.gov is the U.S. government's official web portal to all federal, state and local government web resources and services.